Time;durP1;ratioP1;P1;durP2;ratioP2;P2;SDS_P1;SDS_P2;PMS_P1;PMS_P2;Temp;Humidity;BMP_temperature;BMP_pressure;BME280_temperature;BME280_humidity;BME280_pressure;Samples;Min_cycle;Max_cycle;Signal;HPM_P1;HPM_P2
2021/04/12 00:00:28;;;;;;;9.45;4.47;;;;;;;0.16;100.00;101212.13;5074656;28;20031;-72
2021/04/12 00:03:04;;;;;;;10.25;4.28;;;;;;;0.19;100.00;101212.06;5074238;28;20043;-72
2021/04/12 00:05:41;;;;;;;8.68;3.40;;;;;;;0.39;100.00;101235.63;5073917;28;20098;-73
2021/04/12 00:08:32;;;;;;;9.70;3.83;;;;;;;0.09;100.00;101202.84;5073872;28;20025;-72
2021/04/12 00:11:26;;;;;;;9.98;3.83;;;;;;;0.28;100.00;101239.38;5073901;28;20103;-73
2021/04/12 00:14:06;;;;;;;10.55;3.90;;;;;;;0.28;100.00;101231.63;5064243;28;20063;-72
2021/04/12 00:17:08;;;;;;;8.68;3.95;;;;;;;0.30;100.00;101233.25;5074002;28;20059;-72
2021/04/12 00:19:57;;;;;;;6.82;3.38;;;;;;;0.00;100.00;101196.19;5074299;28;20035;-72
2021/04/12 00:22:42;;;;;;;13.05;3.75;;;;;;;0.24;100.00;101230.84;5073781;28;20039;-72
2021/04/12 00:25:17;;;;;;;5.68;2.90;;;;;;;0.38;100.00;101239.09;5072695;28;20037;-72
2021/04/12 00:27:58;;;;;;;7.32;3.63;;;;;;;0.61;100.00;101229.97;5072589;28;20450;-72
2021/04/12 00:30:49;;;;;;;9.63;4.10;;;;;;;0.51;100.00;101190.66;5073362;28;20050;-72
2021/04/12 00:33:24;;;;;;;10.52;3.67;;;;;;;0.63;100.00;101223.84;5072443;28;20093;-72
2021/04/12 00:35:55;;;;;;;9.45;3.85;;;;;;;0.83;100.00;101222.50;5073613;28;20017;-72
2021/04/12 00:38:38;;;;;;;7.38;3.58;;;;;;;0.86;100.00;101217.25;5073475;28;20082;-72
2021/04/12 00:41:24;;;;;;;10.20;4.75;;;;;;;0.82;100.00;101218.22;5073361;28;20033;-72
2021/04/12 00:44:27;;;;;;;8.93;3.17;;;;;;;0.81;100.00;101216.50;5073360;28;20033;-72
2021/04/12 00:47:14;;;;;;;9.25;3.28;;;;;;;0.88;100.00;101211.16;5073370;28;20096;-72
2021/04/12 00:49:45;;;;;;;8.65;3.30;;;;;;;0.93;100.00;101208.47;5073272;28;20063;-72
2021/04/12 00:52:42;;;;;;;6.80;3.50;;;;;;;1.02;100.00;101218.53;5072922;28;20047;-72
2021/04/12 00:55:35;;;;;;;8.20;3.08;;;;;;;0.93;100.00;101211.03;5071508;28;20025;-72
2021/04/12 00:58:06;;;;;;;7.90;3.33;;;;;;;0.78;100.00;101201.13;5071111;28;20024;-72
2021/04/12 01:00:51;;;;;;;8.55;3.50;;;;;;;0.84;100.00;101206.13;5073295;28;20510;-72
2021/04/12 01:03:29;;;;;;;9.32;3.78;;;;;;;0.99;100.00;101200.56;5071721;28;20499;-72
2021/04/12 01:06:08;;;;;;;8.10;3.83;;;;;;;0.89;100.00;101166.41;5071570;28;20138;-72
2021/04/12 01:08:55;;;;;;;7.93;3.83;;;;;;;0.99;100.00;101200.56;5073072;28;20028;-72
2021/04/12 01:11:57;;;;;;;8.52;3.88;;;;;;;0.81;100.00;101195.88;5088303;28;20060;-72
2021/04/12 01:14:23;;;;;;;9.70;4.07;;;;;;;0.75;100.00;101190.91;5067026;28;20063;-70
2021/04/12 01:17:15;;;;;;;10.93;3.85;;;;;;;0.64;100.00;101189.44;5052651;28;20025;-70
2021/04/12 01:20:08;;;;;;;8.82;3.92;;;;;;;0.38;100.00;101184.09;5053003;28;20420;-72
2021/04/12 01:23:01;;;;;;;10.02;3.95;;;;;;;0.17;100.00;101188.91;5048045;28;20033;-72
2021/04/12 01:25:51;;;;;;;6.80;3.42;;;;;;;-0.19;100.00;101145.97;5054723;28;20028;-72
2021/04/12 01:28:42;;;;;;;7.50;3.05;;;;;;;0.01;100.00;101191.88;5050584;28;20086;-72
2021/04/12 01:31:42;;;;;;;5.25;3.25;;;;;;;0.01;100.00;101182.41;5049264;28;20025;-72
2021/04/12 01:34:24;;;;;;;5.93;3.20;;;;;;;-0.14;100.00;101149.25;5049232;28;20020;-72
2021/04/12 01:36:49;;;;;;;6.55;3.05;;;;;;;0.28;100.00;101187.78;5049793;28;20073;-72
2021/04/12 01:39:56;;;;;;;8.25;3.50;;;;;;;0.37;100.00;101190.13;5050616;28;20060;-72
2021/04/12 01:42:37;;;;;;;8.00;3.60;;;;;;;0.26;100.00;101148.31;5062410;28;20047;-73
2021/04/12 01:45:33;;;;;;;9.90;3.88;;;;;;;0.21;100.00;101138.13;5050620;28;20021;-72
2021/04/12 01:48:07;;;;;;;8.50;3.40;;;;;;;0.26;100.00;101174.09;5050573;28;20102;-72
2021/04/12 01:51:13;;;;;;;6.65;3.15;;;;;;;0.28;100.00;101174.91;5052577;28;20025;-72
2021/04/12 01:54:09;;;;;;;5.53;3.50;;;;;;;0.15;100.00;101174.34;5051344;28;20036;-72
2021/04/12 01:57:00;;;;;;;6.00;3.55;;;;;;;0.03;100.00;101170.31;5048071;28;20454;-72
2021/04/12 01:59:43;;;;;;;;;;;;;;;0.04;100.00;101176.34;5049883;28;20039;-72
2021/04/12 02:02:30;;;;;;;10.48;3.88;;;;;;;-0.08;100.00;101180.06;5050745;28;20370;-72
2021/04/12 02:05:01;;;;;;;7.03;3.50;;;;;;;-0.35;100.00;101141.16;5048948;28;20045;-72
2021/04/12 02:07:27;;;;;;;7.15;3.50;;;;;;;-0.09;100.00;101181.78;5052732;28;20104;-72
2021/04/12 02:10:29;;;;;;;5.72;3.03;;;;;;;-0.03;100.00;101185.97;5055985;28;20179;-72
2021/04/12 02:13:19;;;;;;;7.45;3.03;;;;;;;-0.02;100.00;101187.63;5055950;28;20523;-71
2021/04/12 02:15:51;;;;;;;6.97;3.75;;;;;;;-0.08;100.00;101183.47;5055372;28;20396;-71
2021/04/12 02:18:35;;;;;;;4.25;2.72;;;;;;;-0.16;100.00;101189.69;5055917;28;20021;-71
2021/04/12 02:21:20;;;;;;;6.97;3.60;;;;;;;-0.13;100.00;101174.16;5055925;28;20033;-72
2021/04/12 02:24:06;;;;;;;10.63;3.70;;;;;;;-0.04;100.00;101182.50;5055971;28;20476;-72
2021/04/12 02:26:38;;;;;;;8.13;3.67;;;;;;;-0.18;100.00;101176.00;5056068;28;20112;-72
2021/04/12 02:29:07;;;;;;;7.88;2.80;;;;;;;-0.36;100.00;101175.53;5054520;28;20032;-72
2021/04/12 02:31:44;;;;;;;11.20;3.38;;;;;;;-0.42;100.00;101178.22;5055828;28;20116;-72
2021/04/12 02:34:22;;;;;;;8.50;3.60;;;;;;;-0.61;100.00;101184.66;5056085;28;20025;-71
2021/04/12 02:37:06;;;;;;;8.30;3.38;;;;;;;-0.94;100.00;101138.16;5055611;28;20503;-71
2021/04/12 02:39:32;;;;;;;7.28;3.70;;;;;;;-0.75;100.00;101180.63;5055784;28;20498;-71
2021/04/12 02:42:11;;;;;;;5.78;3.35;;;;;;;-0.74;100.00;101179.78;5055924;28;20095;-71
2021/04/12 02:44:42;;;;;;;10.25;3.70;;;;;;;-0.70;100.00;101182.28;5055637;28;20527;-71
2021/04/12 02:47:26;;;;;;;7.63;3.40;;;;;;;-0.70;100.00;101166.84;5055902;28;20032;-71
2021/04/12 02:50:03;;;;;;;5.70;3.50;;;;;;;-0.61;100.00;101166.63;5055554;28;20028;-71
2021/04/12 02:53:00;;;;;;;9.45;3.90;;;;;;;-0.67;100.00;101161.63;5054122;28;20037;-72
2021/04/12 02:55:58;;;;;;;9.23;3.83;;;;;;;-0.75;100.00;101160.03;5055374;28;20112;-71
2021/04/12 02:58:41;;;;;;;6.10;3.17;;;;;;;-0.73;100.00;101166.03;5054338;28;20464;-71
2021/04/12 03:01:33;;;;;;;8.80;3.28;;;;;;;-0.78;100.00;101160.09;5056172;28;20036;-71
2021/04/12 03:04:01;;;;;;;6.85;3.10;;;;;;;-0.66;100.00;101168.47;5061771;28;20048;-71
2021/04/12 03:07:08;;;;;;;11.35;3.15;;;;;;;-0.76;100.00;101184.09;5053925;28;20044;-72
2021/04/12 03:09:55;;;;;;;6.63;3.63;;;;;;;-0.79;100.00;101168.72;5058383;28;20084;-72
2021/04/12 03:12:23;;;;;;;17.77;9.40;;;;;;;-0.59;100.00;101175.19;5054093;28;20025;-72
2021/04/12 03:15:07;;;;;;;9.68;4.70;;;;;;;-0.43;100.00;101180.84;5053970;28;20511;-72
2021/04/12 03:17:50;;;;;;;13.75;5.28;;;;;;;-0.27;100.00;101177.03;5053696;28;20028;-72
2021/04/12 03:20:31;;;;;;;12.75;6.35;;;;;;;-0.23;100.00;101167.53;5053815;28;20067;-72
2021/04/12 03:23:06;;;;;;;;;;;;;;;-0.20;100.00;101167.44;5054139;28;20488;-72
2021/04/12 03:25:59;;;;;;;21.42;6.30;;;;;;;-0.21;100.00;101165.75;5053775;28;19909;-72
2021/04/12 03:29:01;;;;;;;12.40;4.53;;;;;;;-0.21;100.00;101164.00;5054270;28;20444;-72
2021/04/12 03:31:54;;;;;;;7.13;3.85;;;;;;;-0.33;100.00;101157.44;5052909;28;20033;-73
2021/04/12 03:34:28;;;;;;;9.35;4.45;;;;;;;-0.36;100.00;101170.38;5052947;28;20029;-72
2021/04/12 03:37:30;;;;;;;10.32;4.70;;;;;;;-0.37;100.00;101166.13;5053494;28;20035;-72
2021/04/12 03:40:07;;;;;;;9.35;4.70;;;;;;;-0.96;100.00;101062.72;5051978;28;20067;-72
2021/04/12 03:42:57;;;;;;;8.60;4.43;;;;;;;-0.51;100.00;101158.69;5053046;28;20025;-72
2021/04/12 03:46:01;;;;;;;12.18;5.22;;;;;;;-0.59;100.00;101164.88;5053271;28;20029;-72
2021/04/12 03:48:38;;;;;;;8.73;3.80;;;;;;;-0.42;100.00;101167.94;5052878;28;20108;-72
2021/04/12 03:51:36;;;;;;;10.95;3.88;;;;;;;-0.31;100.00;101168.53;5054708;28;20488;-72
2021/04/12 03:54:22;;;;;;;22.13;5.35;;;;;;;-0.32;100.00;101159.13;5051660;28;20040;-72
2021/04/12 03:57:19;;;;;;;20.67;5.93;;;;;;;-0.25;100.00;101160.66;5073056;28;20033;-72
2021/04/12 03:59:44;;;;;;;16.23;5.53;;;;;;;-0.19;100.00;101154.53;5072777;28;20020;-72
2021/04/12 04:02:36;;;;;;;9.98;4.40;;;;;;;-0.33;100.00;101116.22;5072650;28;20043;-72
2021/04/12 04:05:31;;;;;;;10.07;4.53;;;;;;;-0.37;100.00;101119.75;5031524;28;705757;-72
2021/04/12 04:08:06;;;;;;;17.27;7.95;;;;;;;-0.19;100.00;101156.28;5042800;28;20035;-72
2021/04/12 04:10:37;;;;;;;14.18;7.32;;;;;;;-0.04;100.00;101173.94;5082476;28;20041;-72
2021/04/12 04:13:40;;;;;;;16.85;9.32;;;;;;;0.14;100.00;101172.66;5053184;28;20537;-72
2021/04/12 04:16:14;;;;;;;13.18;8.10;;;;;;;0.29;100.00;101174.00;5052013;28;20451;-72
2021/04/12 04:18:49;;;;;;;13.73;8.43;;;;;;;0.19;100.00;101165.66;5051308;28;20044;-72
2021/04/12 04:22:08;;;;;;;15.30;8.98;;;;;;;0.47;100.00;101181.28;5070416;28;20033;-72
2021/04/12 04:24:58;;;;;;;19.42;9.98;;;;;;;0.64;100.00;101171.38;4991225;28;20049;-72
2021/04/12 04:27:32;;;;;;;15.77;10.05;;;;;;;0.78;100.00;101170.19;5050967;28;20032;-72
2021/04/12 04:30:10;;;;;;;15.20;6.65;;;;;;;0.85;100.00;101176.84;5050457;28;20032;-72
2021/04/12 04:32:38;;;;;;;12.70;6.57;;;;;;;0.92;100.00;101173.22;5051658;28;20053;-72
2021/04/12 04:35:09;;;;;;;11.48;5.65;;;;;;;1.02;100.00;101151.41;5062285;28;20038;-72
2021/04/12 04:38:05;;;;;;;22.02;10.32;;;;;;;1.27;100.00;101137.78;5070263;28;20070;-71
2021/04/12 04:41:08;;;;;;;17.70;10.45;;;;;;;1.94;100.00;101177.09;5071832;28;20025;-71
2021/04/12 04:43:52;;;;;;;33.58;22.42;;;;;;;2.22;100.00;101174.44;5069903;28;20111;-71
2021/04/12 04:46:49;;;;;;;33.15;24.02;;;;;;;2.57;100.00;101178.47;5071648;28;20036;-71
2021/04/12 04:49:21;;;;;;;33.15;22.00;;;;;;;2.87;98.61;101182.59;5037246;28;20423;-71
2021/04/12 04:52:05;;;;;;;30.63;18.83;;;;;;;3.18;95.06;101170.25;5071631;28;20085;-71
2021/04/12 04:54:44;;;;;;;22.75;15.35;;;;;;;3.22;92.45;101137.31;5071929;28;20020;-71
2021/04/12 04:57:53;;;;;;;22.73;12.15;;;;;;;3.67;89.73;101141.63;5073407;28;20025;-71
2021/04/12 05:00:41;;;;;;;17.73;12.10;;;;;;;3.88;87.04;101143.38;5072733;28;20075;-71
2021/04/12 05:03:16;;;;;;;17.90;12.13;;;;;;;4.33;85.60;101167.50;5071679;28;20102;-70
2021/04/12 05:06:18;;;;;;;19.60;10.45;;;;;;;4.51;82.54;101151.16;5072652;28;20048;-70
2021/04/12 05:09:14;;;;;;;18.25;11.80;;;;;;;4.87;80.26;101153.91;5050331;28;20044;-71
2021/04/12 05:11:45;;;;;;;19.20;11.50;;;;;;;5.22;81.17;101151.47;5046805;28;20048;-71
2021/04/12 05:14:49;;;;;;;23.15;12.90;;;;;;;5.44;80.60;101108.00;5043642;28;20071;-70
2021/04/12 05:17:39;;;;;;;18.60;10.40;;;;;;;6.00;77.19;101141.78;5046441;28;20025;-70
2021/04/12 05:20:25;;;;;;;;;;;;;;;6.33;74.32;101141.88;5048438;28;20033;-70
2021/04/12 05:23:20;;;;;;;17.20;10.18;;;;;;;6.68;72.07;101136.63;5045874;28;19920;-70
2021/04/12 05:26:04;;;;;;;16.58;10.55;;;;;;;6.99;70.74;101141.09;5046277;28;20029;-69
2021/04/12 05:28:58;;;;;;;28.10;12.38;;;;;;;7.30;68.36;101143.72;5047547;28;20040;-70
2021/04/12 05:31:52;;;;;;;11.85;6.53;;;;;;;7.68;65.27;101143.38;5045560;28;20041;-70
2021/04/12 05:34:54;;;;;;;7.90;4.22;;;;;;;7.99;61.81;101132.03;5045970;28;20031;-70
2021/04/12 05:37:35;;;;;;;16.52;9.20;;;;;;;8.07;61.97;101136.00;5025438;28;20125;-70
2021/04/12 05:40:22;;;;;;;10.82;4.63;;;;;;;8.22;59.96;101141.16;5046292;28;20021;-70
2021/04/12 05:42:50;;;;;;;7.72;4.10;;;;;;;8.42;57.06;101140.03;5045860;28;20031;-70
2021/04/12 05:45:40;;;;;;;9.32;4.60;;;;;;;8.39;56.52;101140.22;5046636;28;20037;-70
2021/04/12 05:48:37;;;;;;;9.07;4.90;;;;;;;8.55;56.96;101137.53;5045802;28;20094;-70
2021/04/12 05:51:14;;;;;;;8.02;4.40;;;;;;;8.97;56.36;101143.72;5046408;28;20061;-74
2021/04/12 05:53:51;;;;;;;8.02;4.43;;;;;;;9.31;52.02;101131.16;5046495;28;20048;-74
2021/04/12 05:56:35;;;;;;;8.32;4.43;;;;;;;9.32;52.75;101138.09;5046708;28;20028;-73
2021/04/12 05:59:36;;;;;;;8.30;4.63;;;;;;;9.16;53.74;101131.19;5046097;28;20068;-73
2021/04/12 06:02:01;;;;;;;29.35;20.10;;;;;;;9.09;54.59;101135.13;5024261;28;20121;-73
2021/04/12 06:04:35;;;;;;;9.20;6.32;;;;;;;8.98;54.25;101135.78;5041691;28;20563;-73
2021/04/12 06:07:28;;;;;;;7.63;5.10;;;;;;;9.25;53.26;101134.16;5059949;28;20110;-73
2021/04/12 06:10:24;;;;;;;8.88;4.40;;;;;;;9.28;52.47;101092.97;5045847;28;20446;-73
2021/04/12 06:13:23;;;;;;;8.43;4.82;;;;;;;9.61;53.46;101118.75;5045196;28;20029;-73
2021/04/12 06:16:10;;;;;;;8.00;4.60;;;;;;;9.99;50.61;101122.41;5046054;28;20049;-73
2021/04/12 06:19:12;;;;;;;7.65;4.57;;;;;;;10.31;50.52;101120.31;5044774;28;20024;-73
2021/04/12 06:22:15;;;;;;;10.15;4.65;;;;;;;10.59;49.91;101117.50;5045724;28;20032;-74
2021/04/12 06:24:41;;;;;;;7.80;4.60;;;;;;;11.07;49.33;101111.59;5045812;28;20033;-74
2021/04/12 06:27:10;;;;;;;7.85;4.57;;;;;;;10.77;47.06;101077.88;5045537;28;20029;-73
2021/04/12 06:29:46;;;;;;;7.82;5.20;;;;;;;10.97;48.00;101119.28;5046488;28;20488;-73
2021/04/12 06:32:42;;;;;;;9.40;4.85;;;;;;;11.10;48.52;101109.59;5076563;28;20040;-73
2021/04/12 06:35:15;;;;;;;11.23;5.28;;;;;;;11.54;46.77;101126.56;5044529;28;20492;-73
2021/04/12 06:38:13;;;;;;;10.27;5.22;;;;;;;12.00;46.13;101132.91;5045882;28;20040;-73
2021/04/12 06:40:59;;;;;;;8.32;5.30;;;;;;;11.97;45.12;101126.06;5039165;28;20071;-73
2021/04/12 06:44:06;;;;;;;9.18;5.43;;;;;;;12.31;45.20;101141.94;5046123;28;20025;-73
2021/04/12 06:47:07;;;;;;;15.38;6.10;;;;;;;12.30;46.64;101142.91;5045955;28;20021;-74
2021/04/12 06:49:47;;;;;;;9.50;5.30;;;;;;;12.29;45.83;101135.97;5038575;28;20083;-73
2021/04/12 06:52:43;;;;;;;8.50;5.95;;;;;;;12.44;44.79;101102.44;5044182;28;20041;-73
2021/04/12 06:55:18;;;;;;;8.60;5.65;;;;;;;13.01;46.56;101135.69;5049052;28;20033;-73
2021/04/12 06:57:53;;;;;;;10.93;5.50;;;;;;;13.34;44.63;101118.22;5063457;28;20029;-73
2021/04/12 07:00:56;;;;;;;8.35;5.75;;;;;;;13.43;43.54;101128.00;5049621;28;20063;-73
2021/04/12 07:03:59;;;;;;;11.18;6.35;;;;;;;12.84;47.14;101120.41;5044949;28;20037;-72
2021/04/12 07:06:42;;;;;;;45.22;34.35;;;;;;;13.09;46.95;101119.28;5048426;28;20452;-73
2021/04/12 07:09:45;;;;;;;9.05;6.40;;;;;;;12.88;46.52;101127.09;5049471;28;20385;-73
2021/04/12 07:12:45;;;;;;;9.05;5.57;;;;;;;11.90;47.73;101119.59;5048357;28;20109;-74
2021/04/12 07:15:48;;;;;;;10.27;5.77;;;;;;;11.89;49.66;101115.31;5049420;28;20030;-72
2021/04/12 07:18:34;;;;;;;10.13;6.07;;;;;;;11.77;48.41;101111.75;5048741;28;20090;-73
2021/04/12 07:21:15;;;;;;;9.45;6.57;;;;;;;11.58;48.77;101108.81;5048165;28;20404;-73
2021/04/12 07:24:14;;;;;;;9.77;6.35;;;;;;;11.45;50.18;101060.78;5047613;28;20037;-73
2021/04/12 07:26:58;;;;;;;9.63;5.93;;;;;;;12.43;49.88;101098.13;5048806;28;20029;-73
2021/04/12 07:29:44;;;;;;;14.75;6.28;;;;;;;12.49;50.00;101101.13;5049084;28;20116;-73
2021/04/12 07:32:23;;;;;;;12.23;6.03;;;;;;;12.94;47.42;101101.13;5049429;28;20098;-73
2021/04/12 07:35:21;;;;;;;10.88;6.03;;;;;;;13.42;48.56;101095.56;5045766;28;20021;-73
2021/04/12 07:38:02;;;;;;;11.52;5.72;;;;;;;13.55;45.12;101086.69;5038536;28;20068;-73
2021/04/12 07:41:05;;;;;;;10.35;6.05;;;;;;;13.66;47.03;101091.91;5049175;28;20025;-73
2021/04/12 07:43:52;;;;;;;9.63;5.63;;;;;;;13.34;46.11;101079.56;5046089;28;20147;-73
2021/04/12 07:46:39;;;;;;;10.68;5.82;;;;;;;12.88;47.04;101056.88;5049059;28;20021;-73
2021/04/12 07:49:36;;;;;;;10.80;6.00;;;;;;;13.61;47.18;101078.31;5049316;28;20066;-73
2021/04/12 07:52:38;;;;;;;11.27;6.00;;;;;;;14.07;44.67;101074.47;5045815;28;20048;-73
2021/04/12 07:55:28;;;;;;;11.18;6.13;;;;;;;14.29;45.90;101073.50;5048721;28;20036;-72
2021/04/12 07:58:05;;;;;;;9.05;5.82;;;;;;;14.43;46.90;101061.78;5049079;28;20499;-73
2021/04/12 08:01:15;;;;;;;7.93;5.22;;;;;;;14.76;44.36;101055.44;5049010;28;20566;-69
2021/04/12 08:04:18;;;;;;;8.30;5.38;;;;;;;14.40;43.61;101055.81;5044751;28;20045;-68
2021/04/12 08:07:20;;;;;;;7.18;5.47;;;;;;;13.99;44.97;101054.03;5047425;28;20124;-68
2021/04/12 08:10:01;;;;;;;8.35;5.00;;;;;;;14.15;45.76;101049.16;5048553;28;20040;-68
2021/04/12 08:12:41;;;;;;;8.48;5.60;;;;;;;14.17;44.61;101041.97;5048786;28;20063;-69
2021/04/12 08:15:34;;;;;;;8.90;5.70;;;;;;;14.60;44.28;101051.47;5048623;28;20103;-68
2021/04/12 08:18:11;;;;;;;9.63;5.45;;;;;;;15.25;43.79;101051.94;5040108;28;20024;-68
2021/04/12 08:21:02;;;;;;;13.13;9.18;;;;;;;15.86;43.39;101039.47;5048411;28;20029;-72
2021/04/12 08:24:13;;;;;;;10.25;5.32;;;;;;;16.13;39.24;101036.06;5048552;28;20055;-72
2021/04/12 08:27:01;;;;;;;7.63;4.78;;;;;;;16.00;41.05;101039.06;5040682;28;20025;-72
2021/04/12 08:30:01;;;;;;;7.47;4.78;;;;;;;15.53;42.67;101038.91;5047393;28;20029;-72
2021/04/12 08:32:49;;;;;;;7.32;4.63;;;;;;;15.23;41.49;101027.50;5043436;28;20075;-72
2021/04/12 08:35:32;;;;;;;8.15;4.72;;;;;;;15.74;42.05;101015.84;5048507;28;20044;-73
2021/04/12 08:38:28;;;;;;;7.63;4.75;;;;;;;16.26;40.46;101020.72;5047913;28;20411;-72
2021/04/12 08:40:56;;;;;;;8.75;5.10;;;;;;;15.04;40.20;100975.50;5043384;28;20029;-71
2021/04/12 08:43:40;;;;;;;7.68;5.05;;;;;;;15.60;40.86;101016.25;5048244;28;20041;-72
2021/04/12 08:46:37;;;;;;;10.07;5.10;;;;;;;15.58;38.71;100999.69;5047925;28;20048;-72
2021/04/12 08:49:24;;;;;;;8.43;4.28;;;;;;;15.38;39.31;100998.03;5040885;28;20033;-71
2021/04/12 08:52:27;;;;;;;7.13;4.20;;;;;;;15.43;39.32;100996.66;5048003;28;20471;-71
2021/04/12 08:55:05;;;;;;;7.80;4.85;;;;;;;15.46;39.66;100996.38;5047439;28;20098;-71
2021/04/12 08:58:07;;;;;;;7.90;5.13;;;;;;;16.03;39.67;100985.88;5047700;28;20052;-72
2021/04/12 09:00:53;;;;;;;9.88;5.30;;;;;;;16.35;38.35;100976.72;5047872;28;20104;-72
2021/04/12 09:03:37;;;;;;;7.88;4.88;;;;;;;16.92;39.11;100977.41;5045302;28;20535;-72
2021/04/12 09:06:08;;;;;;;9.75;4.97;;;;;;;17.22;38.67;100971.75;5044283;28;20084;-71
2021/04/12 09:09:00;;;;;;;8.10;4.63;;;;;;;17.65;38.65;100971.94;5047293;28;20028;-71
2021/04/12 09:11:59;;;;;;;8.32;5.20;;;;;;;17.66;38.02;100965.66;5042346;28;20087;-71
2021/04/12 09:14:43;;;;;;;8.40;4.88;;;;;;;18.13;38.30;100965.31;5047305;28;20071;-71
2021/04/12 09:17:38;;;;;;;10.05;4.43;;;;;;;17.79;36.90;100960.00;5047241;28;20455;-71
2021/04/12 09:20:15;;;;;;;7.32;4.15;;;;;;;17.83;35.57;100958.69;5046599;28;20037;-71
2021/04/12 09:23:02;;;;;;;8.05;4.35;;;;;;;17.88;34.66;100946.59;5046593;28;20502;-71
2021/04/12 09:26:05;;;;;;;7.82;4.22;;;;;;;18.38;35.55;100942.38;5047141;28;20504;-70
2021/04/12 09:28:57;;;;;;;7.43;4.38;;;;;;;18.49;35.56;100939.44;5045936;28;20044;-70
2021/04/12 09:31:43;;;;;;;7.50;4.70;;;;;;;18.57;34.47;100933.34;5046162;28;20047;-71
2021/04/12 09:34:36;;;;;;;7.25;4.28;;;;;;;18.27;32.43;100905.53;5043025;28;20116;-70
2021/04/12 09:37:29;;;;;;;7.10;5.07;;;;;;;18.02;33.58;100920.50;5041883;28;20112;-71
2021/04/12 09:40:13;;;;;;;7.57;4.30;;;;;;;18.50;34.45;100914.56;5045318;28;20028;-71
2021/04/12 09:43:00;;;;;;;7.55;4.65;;;;;;;19.02;34.61;100916.19;5046936;28;20516;-70
2021/04/12 09:45:54;;;;;;;6.72;4.43;;;;;;;18.78;32.69;100903.72;5046852;28;20487;-71
2021/04/12 09:48:56;;;;;;;7.63;4.85;;;;;;;19.00;35.17;100905.72;5046528;28;20512;-70
2021/04/12 09:51:40;;;;;;;7.97;5.00;;;;;;;19.44;32.91;100907.19;5046842;28;20036;-71
2021/04/12 09:54:29;;;;;;;7.50;4.60;;;;;;;19.80;34.86;100903.16;5043111;28;20519;-71
2021/04/12 09:57:33;;;;;;;10.95;4.90;;;;;;;20.37;33.66;100894.16;5044935;28;20100;-71
2021/04/12 10:00:34;;;;;;;9.75;4.85;;;;;;;20.31;32.56;100860.22;5029813;28;20080;-70
2021/04/12 10:03:17;;;;;;;10.35;4.43;;;;;;;19.92;32.75;100889.53;5030540;28;20150;-70
2021/04/12 10:06:16;;;;;;;6.60;4.28;;;;;;;20.33;33.47;100884.84;5042620;28;20056;-70
2021/04/12 10:09:07;;;;;;;7.07;4.57;;;;;;;20.05;32.62;100885.31;5034838;28;20116;-70
2021/04/12 10:11:52;;;;;;;;;;;;;;;19.94;30.74;100879.53;5043352;28;20865;-70
2021/04/12 10:14:21;;;;;;;7.72;4.65;;;;;;;20.01;31.82;100884.00;5046513;28;20433;-70
2021/04/12 10:17:18;;;;;;;9.45;4.93;;;;;;;20.29;30.27;100867.59;5046840;28;20036;-71
2021/04/12 10:19:59;;;;;;;7.43;4.10;;;;;;;19.97;32.80;100865.88;5037023;28;20480;-70
2021/04/12 10:23:02;;;;;;;6.05;3.75;;;;;;;19.67;30.31;100859.50;5046881;28;20029;-68
2021/04/12 10:25:54;;;;;;;5.60;3.92;;;;;;;19.48;32.71;100866.84;5046820;28;20528;-71
2021/04/12 10:28:26;;;;;;;7.93;4.55;;;;;;;19.77;31.50;100863.63;5062686;28;20465;-69
2021/04/12 10:31:25;;;;;;;9.05;4.40;;;;;;;19.43;31.79;100858.53;5049990;28;20476;-71
2021/04/12 10:34:07;;;;;;;9.13;4.25;;;;;;;19.06;32.63;100859.88;5050483;28;20416;-69
2021/04/12 10:36:59;;;;;;;6.38;3.63;;;;;;;18.96;34.44;100845.94;5055641;28;20028;-69
2021/04/12 10:39:38;;;;;;;6.85;4.22;;;;;;;18.84;30.57;100849.94;5056007;28;20036;-69
2021/04/12 10:42:22;;;;;;;6.93;4.53;;;;;;;18.62;32.23;100854.03;5055880;28;20027;-69
2021/04/12 10:45:03;;;;;;;7.72;3.88;;;;;;;18.59;31.98;100823.31;5055811;28;20515;-69
2021/04/12 10:47:41;;;;;;;9.25;4.10;;;;;;;19.13;31.32;100841.47;5054330;28;20024;-69
2021/04/12 10:50:51;;;;;;;5.72;3.85;;;;;;;19.11;30.32;100843.47;5055923;28;20021;-69
2021/04/12 10:53:33;;;;;;;5.72;3.28;;;;;;;19.53;31.56;100845.88;5055331;28;20068;-69
2021/04/12 10:56:06;;;;;;;6.85;4.28;;;;;;;19.49;30.88;100841.09;5055368;28;20036;-69
2021/04/12 10:58:50;;;;;;;8.60;4.15;;;;;;;19.64;30.61;100834.09;5055391;28;20459;-69
2021/04/12 11:01:36;;;;;;;8.00;4.18;;;;;;;19.29;30.16;100835.31;5055321;28;20065;-69
2021/04/12 11:04:02;;;;;;;6.93;3.90;;;;;;;19.18;31.04;100830.34;5055218;28;20032;-69
2021/04/12 11:06:55;;;;;;;6.88;4.07;;;;;;;19.55;29.00;100825.28;5054980;28;20049;-69
2021/04/12 11:09:48;;;;;;;7.38;3.70;;;;;;;19.86;29.50;100818.41;5055369;28;20099;-69
2021/04/12 11:12:38;;;;;;;6.72;3.65;;;;;;;19.55;29.38;100814.66;5055203;28;20078;-69
2021/04/12 11:15:31;;;;;;;6.28;3.72;;;;;;;18.87;28.00;100784.06;5055529;28;20115;-69
2021/04/12 11:17:59;;;;;;;8.73;3.67;;;;;;;18.91;28.33;100787.22;5054980;28;20031;-69
2021/04/12 11:20:44;;;;;;;6.43;3.65;;;;;;;19.27;28.67;100768.19;5054924;28;20033;-69
2021/04/12 11:23:19;;;;;;;9.30;3.53;;;;;;;19.52;28.81;100764.47;5055268;28;20057;-69
2021/04/12 11:25:55;;;;;;;10.00;3.35;;;;;;;19.67;30.79;100771.75;5055053;28;20032;-69
2021/04/12 11:28:38;;;;;;;6.70;2.85;;;;;;;19.91;27.48;100792.94;5055016;28;20084;-69
2021/04/12 11:31:15;;;;;;;5.60;3.08;;;;;;;19.94;27.51;100787.25;5054666;28;20412;-69
2021/04/12 11:33:47;;;;;;;5.38;3.17;;;;;;;19.54;27.56;100793.53;5054986;28;20036;-69
2021/04/12 11:36:37;;;;;;;5.30;2.90;;;;;;;19.65;27.74;100776.44;5055306;28;20048;-69
2021/04/12 11:39:18;;;;;;;5.43;3.00;;;;;;;19.45;27.45;100771.50;5054286;28;20021;-69
2021/04/12 11:41:58;;;;;;;5.22;3.00;;;;;;;19.42;27.27;100769.16;5054569;28;20138;-69
2021/04/12 11:44:55;;;;;;;5.32;3.20;;;;;;;19.79;26.76;100768.56;5055003;28;20028;-69
2021/04/12 11:47:32;;;;;;;4.95;2.40;;;;;;;19.70;27.47;100766.09;5053562;28;20041;-70
2021/04/12 11:50:00;;;;;;;8.15;2.83;;;;;;;19.81;28.16;100757.75;5053126;28;20025;-70
2021/04/12 11:52:48;;;;;;;5.07;3.17;;;;;;;20.35;27.42;100755.09;5054455;28;20079;-69
2021/04/12 11:55:33;;;;;;;7.10;2.40;;;;;;;20.44;25.76;100755.84;5054315;28;20115;-69
2021/04/12 11:58:07;;;;;;;4.47;2.53;;;;;;;20.29;26.52;100747.81;5054246;28;20495;-69
2021/04/12 12:00:51;;;;;;;10.52;2.88;;;;;;;20.34;26.88;100752.59;5054502;28;20031;-69
2021/04/12 12:03:40;;;;;;;5.72;2.70;;;;;;;19.64;25.24;100753.50;5054404;28;20051;-69
2021/04/12 12:06:24;;;;;;;5.40;2.75;;;;;;;19.68;27.01;100739.69;5054073;28;20067;-70
2021/04/12 12:09:02;;;;;;;3.60;2.40;;;;;;;19.61;26.53;100728.06;5054002;28;20033;-70
2021/04/12 12:11:49;;;;;;;4.85;2.53;;;;;;;20.05;26.04;100749.63;5054255;28;20025;-70
2021/04/12 12:14:35;;;;;;;7.32;2.53;;;;;;;20.09;26.84;100710.19;5054095;28;20029;-70
2021/04/12 12:17:05;;;;;;;7.45;3.17;;;;;;;20.24;26.12;100719.06;5053989;28;20028;-69
2021/04/12 12:19:53;;;;;;;3.97;2.20;;;;;;;20.51;25.29;100738.19;5053882;28;20083;-70
2021/04/12 12:22:40;;;;;;;4.18;2.28;;;;;;;20.71;24.63;100735.84;5053785;28;20040;-70
2021/04/12 12:25:15;;;;;;;6.47;2.17;;;;;;;20.70;24.63;100723.56;5053885;28;20050;-70
2021/04/12 12:27:52;;;;;;;8.68;2.38;;;;;;;20.93;25.25;100727.00;5053671;28;20056;-70
2021/04/12 12:30:28;;;;;;;4.57;2.53;;;;;;;21.17;24.77;100714.41;5054046;28;20396;-70
2021/04/12 12:33:15;;;;;;;4.95;2.00;;;;;;;21.36;26.13;100719.22;5053861;28;20106;-69
2021/04/12 12:35:53;;;;;;;4.25;2.05;;;;;;;21.23;24.67;100711.03;5053615;28;20025;-70
2021/04/12 12:38:43;;;;;;;4.00;2.08;;;;;;;20.85;23.84;100700.41;5053458;28;20029;-70
2021/04/12 12:41:24;;;;;;;7.85;2.20;;;;;;;20.74;24.13;100684.91;5053558;28;20060;-70
2021/04/12 12:43:53;;;;;;;4.03;2.03;;;;;;;20.73;26.15;100676.09;5053443;28;20079;-70
2021/04/12 12:46:28;;;;;;;5.38;2.38;;;;;;;20.84;26.10;100682.78;5053326;28;20044;-70
2021/04/12 12:49:17;;;;;;;4.97;1.90;;;;;;;21.18;26.44;100694.75;5053253;28;20131;-70